Time;durP1;ratioP1;P1;durP2;ratioP2;P2;SDS_P1;SDS_P2;PMS_P1;PMS_P2;Temp;Humidity;BMP_temperature;BMP_pressure;BME280_temperature;BME280_humidity;BME280_pressure;Samples;Min_cycle;Max_cycle;Signal;HPM_P1;HPM_P2
2021/05/26 00:00:49;;;;;;;31.92;8.40;;;;;;;;;;5096107;28;20475;-65
2021/05/26 00:03:14;;;;;;;19.80;6.80;;;;;;;;;;5096236;28;20016;-65
2021/05/26 00:05:39;;;;;;;31.25;8.00;;;;;;;;;;5096089;28;20031;-65
2021/05/26 00:08:04;;;;;;;23.90;7.63;;;;;;;;;;5095883;28;20035;-64
2021/05/26 00:10:30;;;;;;;24.85;6.90;;;;;;;;;;5095669;28;20059;-64
2021/05/26 00:12:55;;;;;;;22.88;6.88;;;;;;;;;;5095668;28;20492;-64
2021/05/26 00:15:20;;;;;;;21.13;7.38;;;;;;;;;;5096045;28;20019;-64
2021/05/26 00:17:46;;;;;;;23.00;7.40;;;;;;;;;;5095731;28;20450;-65
2021/05/26 00:20:11;;;;;;;20.45;7.00;;;;;;;;;;5095650;28;20097;-65
2021/05/26 00:22:36;;;;;;;25.27;7.20;;;;;;;;;;5095699;28;20468;-65
2021/05/26 00:25:02;;;;;;;25.27;7.85;;;;;;;;;;5095464;28;20102;-65
2021/05/26 00:27:28;;;;;;;22.15;6.93;;;;;;;;;;5095477;28;20115;-65
2021/05/26 00:29:53;;;;;;;22.20;6.65;;;;;;;;;;5106842;28;20103;-64
2021/05/26 00:32:18;;;;;;;18.58;6.07;;;;;;;;;;5115975;28;20024;-65
2021/05/26 00:34:44;;;;;;;18.50;6.13;;;;;;;;;;5115888;28;20514;-65
2021/05/26 00:37:09;;;;;;;24.35;7.00;;;;;;;;;;5115896;28;20045;-65
2021/05/26 00:39:34;;;;;;;22.00;7.07;;;;;;;;;;5115961;28;20504;-64
2021/05/26 00:42:00;;;;;;;21.85;6.40;;;;;;;;;;5115800;28;20438;-64
2021/05/26 00:44:25;;;;;;;30.48;7.30;;;;;;;;;;5115591;28;20372;-64
2021/05/26 00:46:51;;;;;;;24.38;6.18;;;;;;;;;;5115552;28;20073;-64
2021/05/26 00:49:16;;;;;;;24.40;6.13;;;;;;;;;;5115712;28;20471;-65
2021/05/26 00:51:41;;;;;;;15.23;6.72;;;;;;;;;;5115667;28;20057;-65
2021/05/26 00:54:07;;;;;;;24.08;6.93;;;;;;;;;;5115222;28;20020;-65
2021/05/26 00:56:33;;;;;;;31.13;7.88;;;;;;;;;;5115403;28;20031;-65
2021/05/26 00:58:59;;;;;;;15.40;6.45;;;;;;;;;;5115012;28;20023;-65
2021/05/26 01:01:24;;;;;;;21.90;7.10;;;;;;;;;;5115595;28;20016;-64
2021/05/26 01:03:50;;;;;;;17.45;6.57;;;;;;;;;;5115525;28;20030;-65
2021/05/26 01:06:15;;;;;;;17.90;6.55;;;;;;;;;;5115379;28;20073;-64
2021/05/26 01:08:40;;;;;;;22.05;7.22;;;;;;;;;;5115293;28;20028;-65
2021/05/26 01:11:06;;;;;;;17.85;6.82;;;;;;;;;;5114881;28;20097;-65
2021/05/26 01:13:31;;;;;;;20.00;6.85;;;;;;;;;;5096825;28;20353;-65
2021/05/26 01:15:57;;;;;;;26.27;7.15;;;;;;;;;;5115194;28;20023;-64
2021/05/26 01:18:23;;;;;;;24.85;7.32;;;;;;;;;;5114985;28;20530;-65
2021/05/26 01:20:50;;;;;;;20.75;6.75;;;;;;;;;;5114647;28;20463;-65
2021/05/26 01:23:18;;;;;;;30.13;8.27;;;;;;;;;;5114984;28;20065;-65
2021/05/26 01:25:47;;;;;;;18.13;6.53;;;;;;;;;;5114271;28;20035;-65
2021/05/26 01:28:13;;;;;;;27.02;6.93;;;;;;;;;;5114797;28;20455;-65
2021/05/26 01:30:38;;;;;;;36.22;8.30;;;;;;;;;;5096591;28;20050;-65
2021/05/26 01:33:04;;;;;;;34.92;8.68;;;;;;;;;;5094252;28;20036;-65
2021/05/26 01:35:29;;;;;;;26.40;6.90;;;;;;;;;;5094024;28;20045;-64
2021/05/26 01:37:54;;;;;;;23.50;6.65;;;;;;;;;;5103696;28;20012;-64
2021/05/26 01:40:20;;;;;;;21.35;6.18;;;;;;;;;;5114402;28;20031;-65
2021/05/26 01:42:45;;;;;;;23.95;6.75;;;;;;;;;;5114496;28;20034;-65
2021/05/26 01:45:11;;;;;;;30.00;7.10;;;;;;;;;;5114656;28;20027;-65
2021/05/26 01:47:37;;;;;;;20.80;6.78;;;;;;;;;;5114341;28;20063;-65
2021/05/26 01:50:03;;;;;;;16.60;6.28;;;;;;;;;;5114284;28;20055;-65
2021/05/26 01:52:29;;;;;;;26.30;7.20;;;;;;;;;;5114326;28;20102;-65
2021/05/26 01:54:54;;;;;;;22.65;7.07;;;;;;;;;;5114137;28;20444;-65
2021/05/26 01:57:19;;;;;;;25.08;7.55;;;;;;;;;;5114289;28;20015;-64
2021/05/26 01:59:44;;;;;;;27.95;7.93;;;;;;;;;;5113965;28;20098;-64
2021/05/26 02:02:10;;;;;;;28.10;7.97;;;;;;;;;;5113772;28;20061;-64
2021/05/26 02:04:35;;;;;;;25.25;8.43;;;;;;;;;;5114189;28;20020;-64
2021/05/26 02:07:06;;;;;;;23.48;8.02;;;;;;;;;;5114326;28;20380;-65
2021/05/26 02:09:32;;;;;;;23.30;6.80;;;;;;;;;;5114127;28;20055;-65
2021/05/26 02:14:41;;;;;;;24.65;7.70;;;;;;;;;;5114144;28;20065;-65
2021/05/26 02:17:06;;;;;;;26.80;8.20;;;;;;;;;;5114248;28;20414;-65
2021/05/26 02:19:32;;;;;;;23.52;7.05;;;;;;;;;;5114011;28;20027;-65
2021/05/26 02:21:57;;;;;;;28.25;7.25;;;;;;;;;;5113850;28;20061;-65
2021/05/26 02:24:22;;;;;;;25.45;7.90;;;;;;;;;;5113817;28;20031;-65
2021/05/26 02:26:48;;;;;;;21.95;6.85;;;;;;;;;;5113851;28;20041;-65
2021/05/26 02:29:13;;;;;;;20.70;7.47;;;;;;;;;;5113791;28;20427;-65
2021/05/26 02:31:38;;;;;;;42.85;8.35;;;;;;;;;;5113852;28;20035;-65
2021/05/26 02:34:04;;;;;;;22.40;7.03;;;;;;;;;;5113750;28;20019;-65
2021/05/26 02:36:29;;;;;;;26.33;7.35;;;;;;;;;;5113087;28;20020;-65
2021/05/26 02:38:54;;;;;;;28.58;7.28;;;;;;;;;;5095270;28;20039;-65
2021/05/26 02:41:19;;;;;;;17.05;6.60;;;;;;;;;;5113502;28;20460;-65
2021/05/26 02:43:45;;;;;;;24.20;7.40;;;;;;;;;;5113611;28;20152;-64
2021/05/26 02:46:10;;;;;;;33.60;8.00;;;;;;;;;;5113876;28;20467;-65
2021/05/26 02:48:35;;;;;;;22.92;7.43;;;;;;;;;;5113497;28;20030;-65
2021/05/26 02:51:01;;;;;;;29.35;7.40;;;;;;;;;;5113740;28;20056;-65
2021/05/26 02:53:26;;;;;;;47.25;8.63;;;;;;;;;;5113249;28;20059;-65
2021/05/26 02:55:51;;;;;;;37.22;6.90;;;;;;;;;;5113547;28;20019;-65
2021/05/26 02:58:16;;;;;;;21.48;6.57;;;;;;;;;;5113205;28;20019;-65
2021/05/26 03:00:43;;;;;;;24.00;7.15;;;;;;;;;;5113529;28;20059;-65
2021/05/26 03:03:08;;;;;;;18.05;6.75;;;;;;;;;;5113471;28;20012;-65
2021/05/26 03:05:33;;;;;;;31.58;6.70;;;;;;;;;;5113446;28;20045;-65
2021/05/26 03:07:59;;;;;;;30.00;8.38;;;;;;;;;;5113284;28;20081;-65
2021/05/26 03:10:24;;;;;;;25.13;6.90;;;;;;;;;;5113109;28;20048;-65
2021/05/26 03:12:50;;;;;;;28.00;6.80;;;;;;;;;;5113366;28;20015;-65
2021/05/26 03:15:16;;;;;;;26.85;7.57;;;;;;;;;;5113425;28;20031;-65
2021/05/26 03:17:42;;;;;;;20.38;7.43;;;;;;;;;;5113285;28;20068;-64
2021/05/26 03:20:08;;;;;;;24.35;7.32;;;;;;;;;;5113387;28;20069;-65
2021/05/26 03:22:33;;;;;;;30.45;7.90;;;;;;;;;;5113086;28;20096;-65
2021/05/26 03:24:59;;;;;;;24.05;6.95;;;;;;;;;;5113342;28;20451;-65
2021/05/26 03:27:33;;;;;;;19.85;7.15;;;;;;;;;;5113187;28;20464;-65
2021/05/26 03:29:58;;;;;;;21.00;6.68;;;;;;;;;;5100549;28;20476;-65
2021/05/26 03:32:24;;;;;;;25.63;6.90;;;;;;;;;;5092888;28;20024;-65
2021/05/26 03:34:49;;;;;;;25.65;7.22;;;;;;;;;;5092858;28;20441;-65
2021/05/26 03:37:14;;;;;;;25.92;7.10;;;;;;;;;;5109788;28;20523;-65
2021/05/26 03:39:40;;;;;;;17.83;6.63;;;;;;;;;;5113316;28;20018;-65
2021/05/26 03:42:05;;;;;;;18.52;6.43;;;;;;;;;;5113281;28;20076;-65
2021/05/26 03:44:30;;;;;;;18.63;6.15;;;;;;;;;;5113036;28;20028;-65
2021/05/26 03:46:56;;;;;;;26.10;7.20;;;;;;;;;;5112942;28;20027;-65
2021/05/26 03:49:21;;;;;;;46.15;8.15;;;;;;;;;;5115832;28;20024;-65
2021/05/26 03:51:46;;;;;;;36.33;7.50;;;;;;;;;;5116759;28;20425;-65
2021/05/26 03:54:11;;;;;;;30.83;7.38;;;;;;;;;;5116763;28;20444;-65
2021/05/26 03:56:37;;;;;;;33.40;7.13;;;;;;;;;;5116430;28;20019;-65
2021/05/26 03:59:02;;;;;;;19.40;6.65;;;;;;;;;;5115932;28;20459;-65
2021/05/26 04:01:27;;;;;;;22.42;6.88;;;;;;;;;;5116588;28;20024;-65
2021/05/26 04:03:53;;;;;;;33.60;7.47;;;;;;;;;;5116502;28;20026;-65
2021/05/26 04:06:18;;;;;;;23.20;6.50;;;;;;;;;;5116508;28;20085;-65
2021/05/26 04:08:43;;;;;;;29.17;7.25;;;;;;;;;;5116137;28;20103;-65
2021/05/26 04:11:09;;;;;;;15.57;6.13;;;;;;;;;;5115886;28;20054;-65
2021/05/26 04:13:34;;;;;;;17.48;6.05;;;;;;;;;;5116258;28;20031;-65
2021/05/26 04:15:59;;;;;;;23.52;7.13;;;;;;;;;;5116386;28;20016;-65
2021/05/26 04:18:25;;;;;;;26.65;6.93;;;;;;;;;;5116645;28;20011;-65
2021/05/26 04:20:50;;;;;;;18.35;7.05;;;;;;;;;;5097877;28;20042;-65
2021/05/26 04:23:15;;;;;;;15.52;6.60;;;;;;;;;;5116447;28;20027;-65
2021/05/26 04:25:42;;;;;;;25.73;7.93;;;;;;;;;;5116250;28;20087;-65
2021/05/26 04:28:08;;;;;;;27.38;7.25;;;;;;;;;;5116010;28;20090;-64
2021/05/26 04:30:34;;;;;;;24.63;6.70;;;;;;;;;;5115691;28;20498;-65
2021/05/26 04:32:59;;;;;;;22.27;6.70;;;;;;;;;;5115976;28;20055;-65
2021/05/26 04:35:24;;;;;;;25.10;6.40;;;;;;;;;;5097802;28;20036;-65
2021/05/26 04:37:49;;;;;;;25.35;7.28;;;;;;;;;;5115744;28;20452;-65
2021/05/26 04:40:15;;;;;;;28.20;7.18;;;;;;;;;;5116158;28;20096;-65
2021/05/26 04:42:40;;;;;;;19.10;6.47;;;;;;;;;;5115669;28;20464;-65
2021/05/26 04:45:06;;;;;;;28.55;7.18;;;;;;;;;;5115921;28;20467;-65
2021/05/26 04:47:31;;;;;;;15.77;6.10;;;;;;;;;;5115662;28;20059;-65
2021/05/26 04:49:56;;;;;;;23.98;6.35;;;;;;;;;;5115716;28;20023;-65
2021/05/26 04:52:21;;;;;;;44.75;6.70;;;;;;;;;;5116012;28;20144;-65
2021/05/26 04:54:47;;;;;;;14.93;4.43;;;;;;;;;;5115310;28;20030;-65
2021/05/26 04:57:12;;;;;;;19.92;5.03;;;;;;;;;;5115578;28;20487;-65
2021/05/26 04:59:37;;;;;;;19.63;5.20;;;;;;;;;;5114126;28;20525;-65
2021/05/26 05:02:04;;;;;;;15.15;5.05;;;;;;;;;;5115255;28;20047;-65
2021/05/26 05:04:30;;;;;;;18.25;4.53;;;;;;;;;;5115380;28;20043;-65
2021/05/26 05:06:56;;;;;;;34.63;4.20;;;;;;;;;;5115219;28;20376;-66
2021/05/26 05:09:22;;;;;;;118.18;7.88;;;;;;;;;;5115001;28;20396;-65
2021/05/26 05:11:47;;;;;;;131.70;8.15;;;;;;;;;;5115232;28;20035;-66
2021/05/26 05:14:12;;;;;;;170.98;8.77;;;;;;;;;;5115181;28;20016;-65
2021/05/26 05:16:37;;;;;;;367.55;21.67;;;;;;;;;;5115241;28;20444;-66
2021/05/26 05:19:04;;;;;;;321.50;18.10;;;;;;;;;;5115050;28;20034;-66
2021/05/26 05:21:29;;;;;;;171.18;12.55;;;;;;;;;;5114818;28;20482;-63
2021/05/26 05:23:55;;;;;;;782.50;39.65;;;;;;;;;;5114932;28;20016;-63
2021/05/26 05:26:20;;;;;;;449.65;26.67;;;;;;;;;;5114963;28;20028;-63
2021/05/26 05:28:45;;;;;;;261.98;16.13;;;;;;;;;;5112616;28;20436;-63
2021/05/26 05:31:10;;;;;;;315.55;25.42;;;;;;;;;;5094595;28;20020;-63
2021/05/26 05:33:36;;;;;;;26.23;4.55;;;;;;;;;;5094070;28;20085;-63
2021/05/26 05:36:02;;;;;;;185.07;18.23;;;;;;;;;;5094449;28;20012;-63
2021/05/26 05:38:27;;;;;;;15.85;3.55;;;;;;;;;;5094340;28;20066;-63
2021/05/26 05:40:52;;;;;;;28.20;4.00;;;;;;;;;;5094323;28;20042;-64
2021/05/26 05:43:17;;;;;;;39.63;4.97;;;;;;;;;;5094138;28;20465;-63
2021/05/26 05:45:43;;;;;;;3.33;2.00;;;;;;;;;;5094213;28;20016;-64
2021/05/26 05:48:08;;;;;;;8.27;2.10;;;;;;;;;;5094075;28;20122;-63
2021/05/26 05:50:33;;;;;;;3.35;1.73;;;;;;;;;;5094146;28;20463;-64
2021/05/26 05:52:59;;;;;;;3.78;1.85;;;;;;;;;;5094148;28;20016;-64
2021/05/26 05:55:24;;;;;;;2.50;1.80;;;;;;;;;;5093855;28;20082;-64
2021/05/26 05:57:49;;;;;;;3.95;1.48;;;;;;;;;;5093586;28;20099;-64
2021/05/26 06:00:15;;;;;;;1.42;1.20;;;;;;;;;;5094102;28;20102;-64
2021/05/26 06:02:40;;;;;;;3.42;1.50;;;;;;;;;;5093734;28;20077;-64
2021/05/26 06:05:06;;;;;;;4.50;1.75;;;;;;;;;;5093907;28;20035;-64
2021/05/26 06:07:31;;;;;;;1.45;1.33;;;;;;;;;;5093868;28;20098;-64
2021/05/26 06:09:57;;;;;;;3.28;1.30;;;;;;;;;;5093363;28;20052;-64
2021/05/26 06:12:23;;;;;;;2.35;1.30;;;;;;;;;;5093587;28;20467;-64
2021/05/26 06:14:48;;;;;;;2.67;1.20;;;;;;;;;;5093648;28;20020;-64
2021/05/26 06:17:13;;;;;;;1.67;1.15;;;;;;;;;;5094074;28;20036;-64
2021/05/26 06:19:38;;;;;;;1.65;0.90;;;;;;;;;;5093521;28;20024;-64
2021/05/26 06:22:04;;;;;;;3.35;0.90;;;;;;;;;;5093429;28;20020;-64
2021/05/26 06:24:29;;;;;;;2.20;1.10;;;;;;;;;;5093533;28;20036;-64
2021/05/26 06:26:54;;;;;;;4.28;1.27;;;;;;;;;;5093491;28;20024;-64
2021/05/26 06:29:20;;;;;;;2.20;0.90;;;;;;;;;;5100295;28;20098;-64
2021/05/26 06:31:45;;;;;;;2.20;1.15;;;;;;;;;;5113933;28;20200;-64
2021/05/26 06:34:10;;;;;;;3.50;1.02;;;;;;;;;;5112445;28;20435;-64
2021/05/26 06:36:36;;;;;;;4.07;1.20;;;;;;;;;;5113847;28;20079;-64
2021/05/26 06:39:02;;;;;;;6.15;1.55;;;;;;;;;;5113413;28;20503;-64
2021/05/26 06:41:27;;;;;;;2.00;1.17;;;;;;;;;;5113766;28;20024;-64
2021/05/26 06:43:52;;;;;;;4.47;1.33;;;;;;;;;;5113611;28;20016;-64
2021/05/26 06:46:18;;;;;;;4.88;1.48;;;;;;;;;;5095304;28;20107;-65
2021/05/26 06:48:43;;;;;;;2.03;0.80;;;;;;;;;;5113453;28;20024;-64
2021/05/26 06:51:08;;;;;;;1.02;0.65;;;;;;;;;;5113362;28;20026;-64
2021/05/26 06:53:33;;;;;;;5.53;1.30;;;;;;;;;;5113551;28;20437;-64
2021/05/26 06:55:59;;;;;;;4.13;1.05;;;;;;;;;;5113418;28;20102;-64
2021/05/26 06:58:24;;;;;;;4.63;1.08;;;;;;;;;;5113572;28;20521;-64
2021/05/26 07:00:49;;;;;;;4.57;1.40;;;;;;;;;;5113493;28;20035;-63
2021/05/26 07:03:15;;;;;;;3.25;1.45;;;;;;;;;;5113457;28;20054;-65
2021/05/26 07:05:40;;;;;;;4.85;1.55;;;;;;;;;;5113451;28;20486;-64
2021/05/26 07:08:05;;;;;;;5.72;1.00;;;;;;;;;;5113338;28;20043;-64
2021/05/26 07:10:31;;;;;;;8.45;1.50;;;;;;;;;;5113639;28;20047;-64
2021/05/26 07:12:56;;;;;;;7.10;1.20;;;;;;;;;;5113235;28;20076;-64
2021/05/26 07:15:21;;;;;;;4.55;1.10;;;;;;;;;;5113415;28;20039;-65
2021/05/26 07:17:47;;;;;;;3.25;1.23;;;;;;;;;;5113325;28;20023;-65
2021/05/26 07:20:13;;;;;;;4.45;1.45;;;;;;;;;;5113323;28;20138;-65
2021/05/26 07:22:38;;;;;;;4.47;1.52;;;;;;;;;;5113344;28;20116;-64
2021/05/26 07:25:04;;;;;;;6.75;1.35;;;;;;;;;;5117518;28;20069;-65
2021/05/26 07:27:29;;;;;;;3.67;1.08;;;;;;;;;;5114935;28;20096;-65
2021/05/26 07:29:55;;;;;;;4.82;1.67;;;;;;;;;;5108381;28;20421;-65
2021/05/26 07:32:20;;;;;;;5.50;1.35;;;;;;;;;;5109624;28;20027;-65
2021/05/26 07:34:45;;;;;;;2.85;1.20;;;;;;;;;;5113358;28;20024;-65
2021/05/26 07:37:10;;;;;;;3.17;1.48;;;;;;;;;;5114121;28;20032;-64
2021/05/26 07:39:36;;;;;;;5.22;1.60;;;;;;;;;;5114083;28;20059;-65
2021/05/26 07:42:06;;;;;;;4.78;1.38;;;;;;;;;;5095549;28;20016;-65
2021/05/26 07:44:31;;;;;;;4.35;1.50;;;;;;;;;;5113800;28;20070;-65
2021/05/26 07:46:57;;;;;;;4.68;1.25;;;;;;;;;;5113770;28;20067;-65
2021/05/26 07:49:22;;;;;;;4.85;1.30;;;;;;;;;;5113532;28;20019;-65
2021/05/26 07:51:52;;;;;;;4.35;1.50;;;;;;;;;;5113243;28;20051;-64
2021/05/26 07:54:18;;;;;;;2.22;1.20;;;;;;;;;;5113408;28;20019;-65
2021/05/26 07:56:43;;;;;;;4.90;1.52;;;;;;;;;;5114128;28;20089;-65
2021/05/26 07:59:08;;;;;;;6.90;1.60;;;;;;;;;;5113241;28;20521;-65
2021/05/26 08:01:34;;;;;;;3.43;1.30;;;;;;;;;;5113245;28;20041;-65
2021/05/26 08:03:59;;;;;;;2.20;0.93;;;;;;;;;;5110267;28;20301;-65
2021/05/26 08:06:24;;;;;;;4.03;1.65;;;;;;;;;;5112726;28;20039;-64
2021/05/26 08:08:50;;;;;;;3.17;1.60;;;;;;;;;;5112953;28;20031;-63
2021/05/26 08:11:15;;;;;;;3.90;1.48;;;;;;;;;;5112960;28;20105;-65
2021/05/26 08:13:40;;;;;;;2.17;0.80;;;;;;;;;;5112408;28;20737;-65
2021/05/26 08:16:07;;;;;;;7.38;1.17;;;;;;;;;;5112691;28;20486;-65
2021/05/26 08:18:32;;;;;;;2.10;0.73;;;;;;;;;;5112424;28;20023;-65
2021/05/26 08:20:57;;;;;;;4.57;1.60;;;;;;;;;;5108948;28;20384;-65
2021/05/26 08:23:25;;;;;;;2.55;1.60;;;;;;;;;;5102753;28;20472;-64
2021/05/26 08:25:51;;;;;;;5.45;1.00;;;;;;;;;;5104172;28;20011;-65
2021/05/26 08:28:16;;;;;;;3.85;1.02;;;;;;;;;;5102337;28;20047;-65
2021/05/26 08:30:42;;;;;;;5.10;0.90;;;;;;;;;;5102150;28;20456;-65
2021/05/26 08:33:07;;;;;;;4.10;0.88;;;;;;;;;;5103279;28;20012;-65
2021/05/26 08:35:32;;;;;;;3.97;0.80;;;;;;;;;;5101990;28;20389;-64
2021/05/26 08:37:57;;;;;;;5.40;1.13;;;;;;;;;;5102387;28;20055;-64
2021/05/26 08:40:23;;;;;;;4.47;0.85;;;;;;;;;;5095575;28;20012;-64
2021/05/26 08:42:49;;;;;;;5.93;1.10;;;;;;;;;;5092404;28;20110;-66
2021/05/26 08:45:14;;;;;;;3.75;1.08;;;;;;;;;;5089458;28;20020;-65
2021/05/26 08:47:43;;;;;;;3.10;0.80;;;;;;;;;;5111042;28;20043;-66
2021/05/26 08:50:09;;;;;;;2.97;0.90;;;;;;;;;;5112611;28;20430;-65
2021/05/26 08:52:34;;;;;;;7.80;1.52;;;;;;;;;;5112599;28;20020;-66
2021/05/26 08:55:00;;;;;;;4.82;1.08;;;;;;;;;;5112022;28;20064;-66
2021/05/26 08:57:25;;;;;;;5.18;1.30;;;;;;;;;;5112388;28;20758;-66
2021/05/26 08:59:50;;;;;;;4.28;1.00;;;;;;;;;;5112658;28;20099;-66
2021/05/26 09:02:16;;;;;;;2.72;0.88;;;;;;;;;;5112394;28;20020;-66
2021/05/26 09:04:41;;;;;;;4.93;1.23;;;;;;;;;;5112840;28;20105;-65
2021/05/26 09:07:07;;;;;;;4.10;1.63;;;;;;;;;;5112501;28;20066;-66
2021/05/26 09:09:33;;;;;;;4.97;1.73;;;;;;;;;;5111950;28;20483;-66
2021/05/26 09:11:59;;;;;;;6.88;1.73;;;;;;;;;;5112580;28;20427;-67
2021/05/26 09:14:36;;;;;;;3.92;1.00;;;;;;;;;;5112282;28;20088;-67
2021/05/26 09:17:11;;;;;;;2.75;0.98;;;;;;;;;;5112594;28;20039;-66
2021/05/26 09:19:37;;;;;;;2.08;0.80;;;;;;;;;;5111989;28;20444;-67
2021/05/26 09:22:12;;;;;;;2.70;0.63;;;;;;;;;;5102798;28;20067;-65
2021/05/26 09:24:38;;;;;;;4.43;1.20;;;;;;;;;;5103797;28;20066;-66
2021/05/26 09:27:05;;;;;;;4.25;1.00;;;;;;;;;;5092835;28;20499;-65
2021/05/26 09:29:31;;;;;;;1.38;0.90;;;;;;;;;;5100115;28;20032;-65
2021/05/26 09:32:17;;;;;;;2.92;1.67;;;;;;;;;;5107823;28;20016;-65
2021/05/26 09:34:43;;;;;;;2.58;0.85;;;;;;;;;;5090985;28;20119;-67
2021/05/26 09:37:16;;;;;;;4.88;0.75;;;;;;;;;;5104673;28;20110;-66
2021/05/26 09:39:46;;;;;;;5.05;1.10;;;;;;;;;;5090602;28;20084;-65
2021/05/26 09:42:21;;;;;;;7.85;1.65;;;;;;;;;;5095317;28;20039;-66
2021/05/26 09:45:04;;;;;;;5.82;1.35;;;;;;;;;;5103547;28;20118;-66
2021/05/26 09:47:56;;;;;;;1.30;0.88;;;;;;;;;;5092973;28;20050;-66
2021/05/26 09:50:21;;;;;;;1.67;0.90;;;;;;;;;;5096469;28;20047;-64
2021/05/26 09:52:57;;;;;;;6.50;1.45;;;;;;;;;;5095279;28;20104;-64
2021/05/26 09:55:33;;;;;;;3.28;0.80;;;;;;;;;;5111205;28;20513;-64
2021/05/26 09:57:59;;;;;;;2.25;0.60;;;;;;;;;;5111343;28;20440;-64
2021/05/26 10:00:25;;;;;;;2.97;0.60;;;;;;;;;;5111019;28;20074;-64
2021/05/26 10:02:51;;;;;;;2.85;0.63;;;;;;;;;;5111508;28;20031;-64
2021/05/26 10:05:18;;;;;;;2.72;0.70;;;;;;;;;;5100674;28;20036;-63
2021/05/26 10:07:44;;;;;;;3.28;0.57;;;;;;;;;;5107416;28;20047;-63
2021/05/26 10:10:10;;;;;;;3.85;0.70;;;;;;;;;;5109872;28;20417;-63
2021/05/26 10:12:39;;;;;;;2.35;0.80;;;;;;;;;;5093010;28;20058;-66
2021/05/26 10:15:06;;;;;;;1.50;1.00;;;;;;;;;;5095864;28;20062;-66
2021/05/26 10:17:37;;;;;;;4.25;0.80;;;;;;;;;;5100390;28;20086;-66
2021/05/26 10:20:04;;;;;;;2.00;0.80;;;;;;;;;;5089431;28;20118;-66
2021/05/26 10:22:29;;;;;;;2.80;0.55;;;;;;;;;;5107397;28;20031;-66
2021/05/26 10:24:55;;;;;;;2.95;0.90;;;;;;;;;;5097809;28;20073;-66
2021/05/26 10:27:56;;;;;;;2.33;1.10;;;;;;;;;;5099975;28;20051;-66
2021/05/26 10:30:24;;;;;;;2.47;0.82;;;;;;;;;;5004427;28;20626;-65
2021/05/26 10:32:54;;;;;;;4.55;1.00;;;;;;;;;;5079079;28;20448;-66
2021/05/26 10:35:20;;;;;;;2.30;1.00;;;;;;;;;;5094910;28;20032;-66
2021/05/26 10:37:46;;;;;;;3.47;1.23;;;;;;;;;;5099843;28;20027;-66
2021/05/26 10:40:30;;;;;;;1.67;0.80;;;;;;;;;;5106388;28;20202;-66
2021/05/26 10:42:56;;;;;;;3.28;0.80;;;;;;;;;;5097128;28;20111;-66
2021/05/26 10:45:34;;;;;;;2.03;0.73;;;;;;;;;;5087820;28;20986;-66
2021/05/26 10:47:59;;;;;;;1.45;0.52;;;;;;;;;;5104603;28;20047;-66
2021/05/26 10:50:45;;;;;;;2.10;0.70;;;;;;;;;;5102050;28;20424;-65
2021/05/26 10:53:11;;;;;;;1.30;0.70;;;;;;;;;;5096275;28;20087;-65
2021/05/26 10:55:36;;;;;;;1.58;0.70;;;;;;;;;;5091295;28;20046;-65
2021/05/26 10:58:11;;;;;;;3.15;0.80;;;;;;;;;;5104126;28;20044;-66
2021/05/26 11:00:36;;;;;;;1.85;0.85;;;;;;;;;;5109204;28;20027;-65
2021/05/26 11:03:20;;;;;;;1.17;0.90;;;;;;;;;;5114855;28;20084;-65
2021/05/26 11:05:45;;;;;;;5.15;1.42;;;;;;;;;;5113655;28;20054;-66
2021/05/26 11:08:29;;;;;;;5.97;0.90;;;;;;;;;;5114346;28;20070;-65
2021/05/26 11:10:55;;;;;;;9.15;1.98;;;;;;;;;;5112759;28;20142;-66
2021/05/26 11:13:20;;;;;;;3.55;1.40;;;;;;;;;;5113433;28;20562;-65
2021/05/26 11:15:46;;;;;;;4.28;0.82;;;;;;;;;;5113733;28;20098;-65
2021/05/26 11:18:15;;;;;;;2.50;0.90;;;;;;;;;;5114117;28;20364;-65
2021/05/26 11:20:41;;;;;;;3.47;0.80;;;;;;;;;;5111392;28;20031;-65
2021/05/26 11:23:13;;;;;;;1.70;0.90;;;;;;;;;;5114816;28;20357;-65
2021/05/26 11:25:47;;;;;;;2.72;1.20;;;;;;;;;;5113568;28;20027;-65
2021/05/26 11:28:12;;;;;;;2.42;0.80;;;;;;;;;;5113810;28;20069;-65
2021/05/26 11:30:37;;;;;;;3.05;0.90;;;;;;;;;;5096536;28;20028;-65
2021/05/26 11:33:08;;;;;;;5.57;0.98;;;;;;;;;;5093872;28;20070;-65
2021/05/26 11:35:33;;;;;;;3.03;0.77;;;;;;;;;;5093122;28;20081;-65
2021/05/26 11:37:58;;;;;;;1.50;0.70;;;;;;;;;;5093368;28;20024;-66
2021/05/26 11:40:26;;;;;;;2.22;0.85;;;;;;;;;;5093338;28;20047;-66
2021/05/26 11:42:52;;;;;;;1.90;0.52;;;;;;;;;;5092727;28;20081;-66
2021/05/26 11:45:17;;;;;;;2.90;0.82;;;;;;;;;;5092860;28;20028;-65
2021/05/26 11:47:44;;;;;;;1.88;0.77;;;;;;;;;;5093558;28;20487;-66
2021/05/26 11:50:15;;;;;;;3.78;0.70;;;;;;;;;;5092577;28;20026;-66
2021/05/26 11:52:42;;;;;;;2.10;0.73;;;;;;;;;;5093394;28;20111;-66
2021/05/26 11:55:07;;;;;;;2.40;1.05;;;;;;;;;;5092180;28;20403;-65
2021/05/26 11:57:41;;;;;;;1.20;0.60;;;;;;;;;;5082089;28;20020;-66
2021/05/26 12:00:07;;;;;;;3.67;1.05;;;;;;;;;;5107725;28;20452;-66
2021/05/26 12:02:33;;;;;;;5.65;0.93;;;;;;;;;;5095161;28;20061;-65
2021/05/26 12:04:58;;;;;;;2.88;0.90;;;;;;;;;;5095078;28;20027;-65
2021/05/26 12:07:24;;;;;;;0.80;0.57;;;;;;;;;;5106727;28;20035;-65
2021/05/26 12:09:53;;;;;;;2.95;0.90;;;;;;;;;;5103618;28;20059;-66
2021/05/26 12:12:19;;;;;;;2.83;0.82;;;;;;;;;;5108188;28;20023;-66
2021/05/26 12:14:47;;;;;;;1.70;0.63;;;;;;;;;;5099756;28;20567;-65
2021/05/26 12:17:14;;;;;;;3.85;1.00;;;;;;;;;;5089177;28;20032;-66
2021/05/26 12:19:40;;;;;;;2.80;0.70;;;;;;;;;;5100520;28;20581;-66
2021/05/26 12:22:06;;;;;;;2.13;0.80;;;;;;;;;;5109259;28;20028;-66
2021/05/26 12:24:48;;;;;;;1.00;0.40;;;;;;;;;;5092355;28;20035;-66
2021/05/26 12:27:13;;;;;;;2.00;0.60;;;;;;;;;;5100094;28;20051;-66
2021/05/26 12:29:39;;;;;;;2.50;0.93;;;;;;;;;;5091245;28;20172;-66
2021/05/26 12:32:04;;;;;;;1.70;0.60;;;;;;;;;;5105075;28;20030;-66
2021/05/26 12:34:29;;;;;;;2.80;0.68;;;;;;;;;;5092702;28;20043;-66
2021/05/26 12:36:56;;;;;;;2.05;0.80;;;;;;;;;;5102777;28;20136;-66
2021/05/26 12:39:23;;;;;;;2.70;0.80;;;;;;;;;;5098070;28;20026;-66
2021/05/26 12:41:51;;;;;;;2.38;0.88;;;;;;;;;;5095198;28;20024;-66
2021/05/26 12:44:16;;;;;;;1.48;0.70;;;;;;;;;;5105026;28;20043;-66
2021/05/26 12:46:45;;;;;;;4.88;1.42;;;;;;;;;;5092244;28;20027;-65
2021/05/26 12:49:23;;;;;;;1.48;0.60;;;;;;;;;;5100088;28;20497;-66
2021/05/26 12:51:49;;;;;;;2.85;1.00;;;;;;;;;;5105932;28;20146;-66
2021/05/26 12:54:14;;;;;;;1.48;0.60;;;;;;;;;;5073947;28;20169;-66
2021/05/26 12:56:39;;;;;;;3.28;0.85;;;;;;;;;;5104448;28;20523;-66
2021/05/26 12:59:05;;;;;;;3.45;0.82;;;;;;;;;;5095736;28;20019;-66
2021/05/26 13:01:30;;;;;;;2.17;0.82;;;;;;;;;;5096353;28;20047;-66
2021/05/26 13:03:56;;;;;;;1.17;0.60;;;;;;;;;;5102864;28;20032;-65
2021/05/26 13:06:21;;;;;;;3.80;0.80;;;;;;;;;;5107962;28;20051;-65
2021/05/26 13:08:56;;;;;;;1.85;0.88;;;;;;;;;;5106339;28;20423;-66
2021/05/26 13:11:37;;;;;;;2.50;0.75;;;;;;;;;;5098947;28;20464;-65
2021/05/26 13:14:03;;;;;;;1.98;0.70;;;;;;;;;;5099935;28;20031;-65
2021/05/26 13:16:28;;;;;;;1.13;0.70;;;;;;;;;;5095879;28;20058;-65
2021/05/26 13:18:53;;;;;;;2.53;0.73;;;;;;;;;;5101483;28;20381;-66
2021/05/26 13:21:18;;;;;;;0.93;0.68;;;;;;;;;;5101600;28;20016;-66
2021/05/26 13:23:44;;;;;;;2.42;0.85;;;;;;;;;;5105148;28;20024;-66
2021/05/26 13:26:09;;;;;;;3.17;0.70;;;;;;;;;;5092649;28;20019;-66
2021/05/26 13:28:39;;;;;;;3.55;0.98;;;;;;;;;;5110386;28;20036;-66
2021/05/26 13:31:04;;;;;;;3.65;1.05;;;;;;;;;;5090476;28;20171;-66
2021/05/26 13:33:29;;;;;;;2.60;0.93;;;;;;;;;;5091921;28;20098;-66
2021/05/26 13:35:56;;;;;;;2.35;0.95;;;;;;;;;;5091481;28;20449;-66
2021/05/26 13:38:22;;;;;;;3.17;0.95;;;;;;;;;;5090696;28;20047;-66
2021/05/26 13:40:48;;;;;;;1.85;0.70;;;;;;;;;;5090437;28;20443;-66
2021/05/26 13:43:14;;;;;;;2.03;1.00;;;;;;;;;;5072607;28;20031;-67
2021/05/26 13:45:39;;;;;;;4.93;1.13;;;;;;;;;;5090998;28;20032;-66
2021/05/26 13:48:06;;;;;;;2.75;1.15;;;;;;;;;;5100751;28;20039;-66
2021/05/26 13:50:33;;;;;;;2.53;0.88;;;;;;;;;;5088709;28;20036;-66
2021/05/26 13:52:59;;;;;;;1.50;0.93;;;;;;;;;;5090117;28;20040;-65
2021/05/26 13:55:26;;;;;;;0.82;0.60;;;;;;;;;;5082235;28;20043;-66
2021/05/26 13:57:55;;;;;;;2.20;0.90;;;;;;;;;;5088899;28;20028;-66
2021/05/26 14:00:22;;;;;;;4.25;1.17;;;;;;;;;;5097575;28;20146;-65
2021/05/26 14:02:47;;;;;;;1.38;0.85;;;;;;;;;;5089296;28;20024;-65
2021/05/26 14:05:13;;;;;;;0.68;0.65;;;;;;;;;;5086623;28;20074;-65
2021/05/26 14:07:39;;;;;;;1.45;0.88;;;;;;;;;;5092492;28;20775;-65
2021/05/26 14:10:06;;;;;;;1.40;0.95;;;;;;;;;;5106851;28;20055;-65
2021/05/26 14:12:31;;;;;;;4.13;0.98;;;;;;;;;;5094985;28;20035;-65
2021/05/26 14:14:57;;;;;;;2.95;0.93;;;;;;;;;;5089376;28;20040;-65
2021/05/26 14:17:22;;;;;;;1.00;0.73;;;;;;;;;;5107524;28;20027;-65
2021/05/26 14:19:47;;;;;;;2.55;0.80;;;;;;;;;;5099161;28;20510;-65
2021/05/26 14:22:12;;;;;;;3.30;0.80;;;;;;;;;;5096971;28;20130;-65
2021/05/26 14:24:38;;;;;;;2.63;0.95;;;;;;;;;;5106623;28;20050;-65
2021/05/26 14:27:04;;;;;;;2.25;0.77;;;;;;;;;;5089043;28;20112;-65
2021/05/26 14:29:29;;;;;;;3.05;0.93;;;;;;;;;;5102617;28;20027;-64
2021/05/26 14:31:55;;;;;;;2.45;1.00;;;;;;;;;;5106918;28;20453;-65
2021/05/26 14:34:21;;;;;;;1.48;0.90;;;;;;;;;;5094426;28;20032;-65
2021/05/26 14:36:47;;;;;;;5.43;0.82;;;;;;;;;;5099294;28;20932;-65